Time;durP1;ratioP1;P1;durP2;ratioP2;P2;SDS_P1;SDS_P2;PMS_P1;PMS_P2;Temp;Humidity;BMP_temperature;BMP_pressure;BME280_temperature;BME280_humidity;BME280_pressure;Samples;Min_cycle;Max_cycle;Signal;HPM_P1;HPM_P2
2023/10/01 00:01:32;;;;;;;;;;;;;;;;;;6151965;23;19908;-95
2023/10/01 00:03:58;;;;;;;;;;;;;;;;;;6154199;23;19904;-95
2023/10/01 00:06:25;;;;;;;;;;;;;;;;;;6153600;23;20273;-96
2023/10/01 00:08:53;;;;;;;;;;;;;;;;;;6155840;23;19952;-95
2023/10/01 00:11:19;;;;;;;;;;;;;;;;;;6154232;23;19912;-94
2023/10/01 00:13:45;;;;;;;;;;;;;;;;;;6152733;23;19972;-93
2023/10/01 00:16:17;;;;;;;;;;;;;;;;;;6153065;23;20015;-94
2023/10/01 00:18:44;;;;;;;;;;;;;;;;;;6151339;23;19963;-94
2023/10/01 00:21:10;;;;;;;;;;;;;;;;;;6154185;23;19909;-95
2023/10/01 00:23:36;;;;;;;;;;;;;;;;;;6152940;23;19904;-96
2023/10/01 00:26:02;;;;;;;;;;;;;;;;;;6151814;23;19908;-94
2023/10/01 00:28:28;;;;;;;;;;;;;;;;;;6153366;23;19991;-95
2023/10/01 00:30:54;;;;;;;;;;;;;;;;;;6151394;23;19908;-95
2023/10/01 00:33:20;;;;;;;;;;;;;;;;;;6153865;23;20182;-95
2023/10/01 00:35:46;;;;;;;;;;;;;;;;;;6151801;23;19913;-94
2023/10/01 00:38:13;;;;;;;;;;;;;;;;;;6151113;23;19905;-93
2023/10/01 00:40:39;;;;;;;;;;;;;;;;;;6148692;23;19904;-93
2023/10/01 00:43:05;;;;;;;;;;;;;;;;;;6151015;23;19932;-92
2023/10/01 00:45:31;;;;;;;;;;;;;;;;;;6151440;23;19905;-93
2023/10/01 00:47:57;;;;;;;;;;;;;;;;;;6151325;23;20390;-94
2023/10/01 00:50:23;;;;;;;;;;;;;;;;;;6154032;23;19944;-94
2023/10/01 00:52:58;;;;;;;;;;;;;;;;;;6150573;23;20659;-93
2023/10/01 00:55:23;;;;;;;;;;;;;;;;;;6154409;23;19908;-95
2023/10/01 00:57:49;;;;;;;;;;;;;;;;;;6152170;23;19971;-94
2023/10/01 01:00:19;;;;;;;;;;;;;;;;;;6154291;23;19904;-95
2023/10/01 01:03:05;;;;;;;;;;;;;;;;;;6151918;23;20320;-95
2023/10/01 01:05:34;;;;;;;;;;;;;;;;;;6153160;23;19971;-94
2023/10/01 01:08:00;;;;;;;;;;;;;;;;;;6153177;23;20378;-95
2023/10/01 01:10:31;;;;;;;;;;;;;;;;;;6152929;23;19971;-95
2023/10/01 01:12:58;;;;;;;;;;;;;;;;;;6153847;23;19959;-95
2023/10/01 01:15:24;;;;;;;;;;;;;;;;;;6152689;23;20134;-95
2023/10/01 01:17:53;;;;;;;;;;;;;;;;;;6152844;23;19944;-95
2023/10/01 01:20:19;;;;;;;;;;;;;;;;;;6153046;23;19912;-94
2023/10/01 01:22:45;;;;;;;;;;;;;;;;;;6152386;23;19963;-95
2023/10/01 01:25:19;;;;;;;;;;;;;;;;;;6150783;23;19904;-94
2023/10/01 01:27:46;;;;;;;;;;;;;;;;;;6154918;23;19912;-94
2023/10/01 01:30:18;;;;;;;;;;;;;;;;;;6127008;23;19983;-94
2023/10/01 01:32:45;;;;;;;;;;;;;;;;;;6128684;23;19913;-95
2023/10/01 01:35:11;;;;;;;;;;;;;;;;;;6129068;23;20402;-95
2023/10/01 01:37:46;;;;;;;;;;;;;;;;;;6127093;23;19916;-95
2023/10/01 01:40:27;;;;;;;;;;;;;;;;;;6128286;23;19905;-94
2023/10/01 01:43:15;;;;;;;;;;;;;;;;;;6127519;23;20238;-95
2023/10/01 01:45:43;;;;;;;;;;;;;;;;;;6126546;23;19975;-94
2023/10/01 01:48:21;;;;;;;;;;;;;;;;;;6127862;23;19916;-93
2023/10/01 01:50:47;;;;;;;;;;;;;;;;;;6125618;23;19913;-92
2023/10/01 01:53:13;;;;;;;;;;;;;;;;;;6124832;23;20315;-93
2023/10/01 01:55:42;;;;;;;;;;;;;;;;;;6125005;23;19963;-92
2023/10/01 01:58:08;;;;;;;;;;;;;;;;;;6127120;23;19904;-94
2023/10/01 02:00:35;;;;;;;;;;;;;;;;;;6127123;23;19916;-94
2023/10/01 02:03:10;;;;;;;;;;;;;;;;;;6128676;23;20346;-94
2023/10/01 02:05:36;;;;;;;;;;;;;;;;;;6127041;23;19936;-94
2023/10/01 02:08:06;;;;;;;;;;;;;;;;;;6128085;23;19908;-95
2023/10/01 02:10:44;;;;;;;;;;;;;;;;;;6126639;23;19924;-93
2023/10/01 02:13:11;;;;;;;;;;;;;;;;;;6126669;23;20331;-94
2023/10/01 02:15:37;;;;;;;;;;;;;;;;;;6126271;23;19939;-94
2023/10/01 02:18:04;;;;;;;;;;;;;;;;;;6128036;23;20488;-95
2023/10/01 02:20:33;;;;;;;;;;;;;;;;;;6128050;23;19920;-95
2023/10/01 02:23:02;;;;;;;;;;;;;;;;;;6128032;23;19936;-94
2023/10/01 02:25:37;;;;;;;;;;;;;;;;;;6126639;23;20338;-93
2023/10/01 02:28:12;;;;;;;;;;;;;;;;;;6129882;23;19916;-94
2023/10/01 02:30:41;;;;;;;;;;;;;;;;;;6148575;23;20038;-94
2023/10/01 02:33:17;;;;;;;;;;;;;;;;;;6151932;23;20508;-94
2023/10/01 02:35:45;;;;;;;;;;;;;;;;;;6151115;23;20206;-94
2023/10/01 02:40:57;;;;;;;;;;;;;;;;;;6153990;23;19956;-95
2023/10/01 02:43:24;;;;;;;;;;;;;;;;;;6151042;23;19908;-94
2023/10/01 02:45:50;;;;;;;;;;;;;;;;;;6150420;23;19991;-94
2023/10/01 02:48:16;;;;;;;;;;;;;;;;;;6152449;23;19909;-94
2023/10/01 02:50:45;;;;;;;;;;;;;;;;;;6151581;23;20330;-94
2023/10/01 02:53:11;;;;;;;;;;;;;;;;;;6152271;23;19905;-95
2023/10/01 02:55:45;;;;;;;;;;;;;;;;;;6151749;23;19972;-95
2023/10/01 02:58:17;;;;;;;;;;;;;;;;;;6152280;23;19932;-93
2023/10/01 03:00:43;;;;;;;;;;;;;;;;;;6149810;23;20363;-92
2023/10/01 03:03:17;;;;;;;;;;;;;;;;;;6150352;23;19916;-92
2023/10/01 03:05:44;;;;;;;;;;;;;;;;;;6150440;23;19940;-93
2023/10/01 03:10:56;;;;;;;;;;;;;;;;;;6155520;23;19963;-95
2023/10/01 03:13:30;;;;;;;;;;;;;;;;;;6154165;23;19909;-94
2023/10/01 03:18:44;;;;;;;;;;;;;;;;;;6153937;23;19915;-94
2023/10/01 03:21:18;;;;;;;;;;;;;;;;;;6153606;23;19905;-95
2023/10/01 03:23:52;;;;;;;;;;;;;;;;;;6153855;23;19960;-94
2023/10/01 03:26:18;;;;;;;;;;;;;;;;;;6154531;23;19909;-94
2023/10/01 03:31:29;;;;;;;;;;;;;;;;;;6155011;23;20405;-95
2023/10/01 03:33:55;;;;;;;;;;;;;;;;;;6154558;23;19952;-96
2023/10/01 03:36:28;;;;;;;;;;;;;;;;;;6152799;23;19916;-94
2023/10/01 03:38:59;;;;;;;;;;;;;;;;;;6153121;23;20344;-95
2023/10/01 03:41:27;;;;;;;;;;;;;;;;;;6153095;23;19979;-95
2023/10/01 03:44:08;;;;;;;;;;;;;;;;;;6152663;23;20181;-94
2023/10/01 03:46:42;;;;;;;;;;;;;;;;;;6152821;23;19905;-94
2023/10/01 03:51:53;;;;;;;;;;;;;;;;;;6154539;23;19927;-94
2023/10/01 03:54:20;;;;;;;;;;;;;;;;;;6154473;23;19916;-95
2023/10/01 03:56:55;;;;;;;;;;;;;;;;;;6152022;23;19953;-94
2023/10/01 03:59:22;;;;;;;;;;;;;;;;;;6153518;23;19905;-93
2023/10/01 04:02:03;;;;;;;;;;;;;;;;;;6150729;23;20344;-93
2023/10/01 04:04:31;;;;;;;;;;;;;;;;;;6152978;23;19928;-95
2023/10/01 04:06:59;;;;;;;;;;;;;;;;;;6152235;23;19915;-96
2023/10/01 04:09:26;;;;;;;;;;;;;;;;;;6152323;23;19904;-92
2023/10/01 04:11:52;;;;;;;;;;;;;;;;;;6151206;23;19983;-92
2023/10/01 04:14:18;;;;;;;;;;;;;;;;;;6147147;23;19913;-92
2023/10/01 04:16:46;;;;;;;;;;;;;;;;;;6149686;23;19912;-92
2023/10/01 04:19:12;;;;;;;;;;;;;;;;;;6148566;23;19904;-92
2023/10/01 04:21:40;;;;;;;;;;;;;;;;;;6150100;23;20229;-92
2023/10/01 04:24:08;;;;;;;;;;;;;;;;;;6151331;23;19904;-92
2023/10/01 04:26:35;;;;;;;;;;;;;;;;;;6150351;23;19908;-92
2023/10/01 04:29:01;;;;;;;;;;;;;;;;;;6148994;23;20012;-92
2023/10/01 04:31:47;;;;;;;;;;;;;;;;;;6149817;23;19939;-93
2023/10/01 04:34:13;;;;;;;;;;;;;;;;;;6149534;23;19971;-92
2023/10/01 04:36:39;;;;;;;;;;;;;;;;;;6149451;23;20362;-92
2023/10/01 04:39:05;;;;;;;;;;;;;;;;;;6149139;23;19908;-92
2023/10/01 04:41:31;;;;;;;;;;;;;;;;;;6150473;23;19935;-92
2023/10/01 04:44:06;;;;;;;;;;;;;;;;;;6151475;23;20019;-92
2023/10/01 04:46:37;;;;;;;;;;;;;;;;;;6147188;23;20251;-92
2023/10/01 04:49:08;;;;;;;;;;;;;;;;;;6150587;23;20342;-92
2023/10/01 04:51:44;;;;;;;;;;;;;;;;;;6149329;23;19908;-93
2023/10/01 04:54:14;;;;;;;;;;;;;;;;;;6150843;23;20534;-92
2023/10/01 04:56:40;;;;;;;;;;;;;;;;;;6149364;23;19908;-93
2023/10/01 04:59:07;;;;;;;;;;;;;;;;;;6149400;23;20463;-92
2023/10/01 05:01:33;;;;;;;;;;;;;;;;;;6148050;23;19991;-91
2023/10/01 05:04:00;;;;;;;;;;;;;;;;;;6149154;23;19940;-93
2023/10/01 05:06:27;;;;;;;;;;;;;;;;;;6149442;23;20393;-92
2023/10/01 05:08:56;;;;;;;;;;;;;;;;;;6151126;23;19904;-92
2023/10/01 05:11:22;;;;;;;;;;;;;;;;;;6149318;23;20345;-92
2023/10/01 05:13:48;;;;;;;;;;;;;;;;;;6149694;23;19936;-91
2023/10/01 05:16:14;;;;;;;;;;;;;;;;;;6146022;23;19916;-92
2023/10/01 05:18:40;;;;;;;;;;;;;;;;;;6149421;23;19913;-92
2023/10/01 05:21:12;;;;;;;;;;;;;;;;;;6149991;23;19908;-92
2023/10/01 05:23:39;;;;;;;;;;;;;;;;;;6149833;23;19911;-92
2023/10/01 05:26:08;;;;;;;;;;;;;;;;;;6149402;23;20351;-92
2023/10/01 05:28:36;;;;;;;;;;;;;;;;;;6149659;23;19917;-92
2023/10/01 05:31:05;;;;;;;;;;;;;;;;;;6149113;23;19913;-92
2023/10/01 05:33:33;;;;;;;;;;;;;;;;;;6150902;23;19909;-92
2023/10/01 05:36:00;;;;;;;;;;;;;;;;;;6148877;23;20088;-93
2023/10/01 05:38:33;;;;;;;;;;;;;;;;;;6150900;23;19955;-93
2023/10/01 05:41:01;;;;;;;;;;;;;;;;;;6149715;23;19924;-93
2023/10/01 05:43:31;;;;;;;;;;;;;;;;;;6150525;23;20298;-93
2023/10/01 05:46:01;;;;;;;;;;;;;;;;;;6150577;23;19914;-93
2023/10/01 05:48:27;;;;;;;;;;;;;;;;;;6150828;23;20306;-93
2023/10/01 05:50:57;;;;;;;;;;;;;;;;;;6149554;23;19912;-93
2023/10/01 05:53:23;;;;;;;;;;;;;;;;;;6150356;23;20177;-93
2023/10/01 05:55:49;;;;;;;;;;;;;;;;;;6150491;23;19913;-93
2023/10/01 05:58:19;;;;;;;;;;;;;;;;;;6151447;23;19908;-93
2023/10/01 06:00:46;;;;;;;;;;;;;;;;;;6149801;23;19912;-93
2023/10/01 06:03:19;;;;;;;;;;;;;;;;;;6149482;23;20271;-94
2023/10/01 06:08:17;;;;;;;;;;;;;;;;;;6161465;23;20260;-93
2023/10/01 06:10:46;;;;;;;;;;;;;;;;;;6150466;23;19989;-94
2023/10/01 06:13:13;;;;;;;;;;;;;;;;;;6149900;23;20278;-93
2023/10/01 06:15:40;;;;;;;;;;;;;;;;;;6150357;23;20137;-94
2023/10/01 06:18:05;;;;;;;;;;;;;;;;;;6148823;23;20411;-93
2023/10/01 06:20:33;;;;;;;;;;;;;;;;;;6151418;23;19928;-93
2023/10/01 06:22:59;;;;;;;;;;;;;;;;;;6150077;23;19952;-93
2023/10/01 06:25:40;;;;;;;;;;;;;;;;;;6148909;23;19936;-93
2023/10/01 06:28:09;;;;;;;;;;;;;;;;;;6152485;23;19955;-95
2023/10/01 06:30:35;;;;;;;;;;;;;;;;;;6148192;23;20340;-95
2023/10/01 06:33:01;;;;;;;;;;;;;;;;;;6152185;23;19920;-95
2023/10/01 06:35:26;;;;;;;;;;;;;;;;;;6152226;23;19908;-95
2023/10/01 06:37:58;;;;;;;;;;;;;;;;;;6150948;23;19931;-93
2023/10/01 06:40:32;;;;;;;;;;;;;;;;;;6150218;23;19909;-93
2023/10/01 06:43:01;;;;;;;;;;;;;;;;;;6153197;23;19905;-93
2023/10/01 06:45:40;;;;;;;;;;;;;;;;;;6150572;23;19905;-93
2023/10/01 06:48:08;;;;;;;;;;;;;;;;;;6152960;23;19909;-93
2023/10/01 06:50:35;;;;;;;;;;;;;;;;;;6151580;23;19916;-93
2023/10/01 06:53:03;;;;;;;;;;;;;;;;;;6152482;23;19916;-93
2023/10/01 06:55:30;;;;;;;;;;;;;;;;;;6149263;23;19952;-93
2023/10/01 06:57:59;;;;;;;;;;;;;;;;;;6154321;23;19911;-92
2023/10/01 07:00:32;;;;;;;;;;;;;;;;;;6151983;23;19905;-93
2023/10/01 07:03:16;;;;;;;;;;;;;;;;;;6153353;23;20331;-93
2023/10/01 07:05:45;;;;;;;;;;;;;;;;;;6152402;23;19981;-93
2023/10/01 07:08:11;;;;;;;;;;;;;;;;;;6151736;23;19916;-93
2023/10/01 07:10:37;;;;;;;;;;;;;;;;;;6152913;23;19913;-93
2023/10/01 07:13:08;;;;;;;;;;;;;;;;;;6151085;23;19916;-94
2023/10/01 07:15:34;;;;;;;;;;;;;;;;;;6151037;23;19912;-93
2023/10/01 07:18:13;;;;;;;;;;;;;;;;;;6151941;23;19905;-93
2023/10/01 07:20:39;;;;;;;;;;;;;;;;;;6151865;23;19905;-93
2023/10/01 07:23:06;;;;;;;;;;;;;;;;;;6151406;23;19955;-94
2023/10/01 07:25:39;;;;;;;;;;;;;;;;;;6153576;23;19939;-93
2023/10/01 07:28:05;;;;;;;;;;;;;;;;;;6151197;23;20243;-93
2023/10/01 07:30:45;;;;;;;;;;;;;;;;;;6151391;23;19927;-94
2023/10/01 07:33:14;;;;;;;;;;;;;;;;;;6152825;23;19905;-93
2023/10/01 07:35:40;;;;;;;;;;;;;;;;;;6152704;23;19953;-94
2023/10/01 07:38:06;;;;;;;;;;;;;;;;;;6153059;23;19953;-92
2023/10/01 07:40:52;;;;;;;;;;;;;;;;;;6152024;23;20296;-93
2023/10/01 07:43:18;;;;;;;;;;;;;;;;;;6151621;23;20319;-93
2023/10/01 07:45:55;;;;;;;;;;;;;;;;;;6151158;23;19909;-93
2023/10/01 07:48:22;;;;;;;;;;;;;;;;;;6152051;23;19909;-96
2023/10/01 07:50:48;;;;;;;;;;;;;;;;;;6151496;23;19975;-94
2023/10/01 07:53:18;;;;;;;;;;;;;;;;;;6152331;23;19908;-95
2023/10/01 07:55:46;;;;;;;;;;;;;;;;;;6152772;23;20335;-96
2023/10/01 07:58:45;;;;;;;;;;;;;;;;;;6153428;23;19955;-95
2023/10/01 08:02:19;;;;;;;;;;;;;;;;;;6153823;23;19944;-95
2023/10/01 08:04:06;;;;;;;;;;;;;;;;;;6137696;23;19905;-95
2023/10/01 08:06:32;;;;;;;;;;;;;;;;;;6151272;23;19932;-95
2023/10/01 08:08:57;;;;;;;;;;;;;;;;;;6152302;23;19908;-95
2023/10/01 08:14:08;;;;;;;;;;;;;;;;;;6152809;23;19970;-95
2023/10/01 08:16:47;;;;;;;;;;;;;;;;;;6150950;23;19940;-95
2023/10/01 08:19:13;;;;;;;;;;;;;;;;;;6151570;23;20445;-96
2023/10/01 08:21:48;;;;;;;;;;;;;;;;;;6153858;23;19913;-95
2023/10/01 08:24:18;;;;;;;;;;;;;;;;;;6152897;23;19930;-95
2023/10/01 08:26:44;;;;;;;;;;;;;;;;;;6154266;23;19905;-95
2023/10/01 08:29:14;;;;;;;;;;;;;;;;;;6153719;23;19916;-95
2023/10/01 08:34:27;;;;;;;;;;;;;;;;;;6155227;23;19991;-96
2023/10/01 08:36:56;;;;;;;;;;;;;;;;;;6153625;23;19909;-95
2023/10/01 08:40:13;;;;;;;;;;;;;;;;;;6153417;23;19963;-95
2023/10/01 08:42:08;;;;;;;;;;;;;;;;;;6137980;23;19912;-96
2023/10/01 08:44:44;;;;;;;;;;;;;;;;;;6152944;23;19916;-95
2023/10/01 08:47:21;;;;;;;;;;;;;;;;;;6153015;23;19908;-93
2023/10/01 08:49:47;;;;;;;;;;;;;;;;;;6152247;23;19983;-92
2023/10/01 08:52:19;;;;;;;;;;;;;;;;;;6149690;23;19908;-93
2023/10/01 08:54:45;;;;;;;;;;;;;;;;;;6150683;23;20034;-92
2023/10/01 08:57:17;;;;;;;;;;;;;;;;;;6150079;23;19904;-93
2023/10/01 08:59:43;;;;;;;;;;;;;;;;;;6151838;23;19957;-92
2023/10/01 09:02:15;;;;;;;;;;;;;;;;;;6149909;23;19905;-93
2023/10/01 09:04:48;;;;;;;;;;;;;;;;;;6150376;23;19908;-93
2023/10/01 09:07:20;;;;;;;;;;;;;;;;;;6151312;23;19911;-93
2023/10/01 09:09:52;;;;;;;;;;;;;;;;;;6150125;23;19932;-93
2023/10/01 09:12:18;;;;;;;;;;;;;;;;;;6151439;23;19959;-92
2023/10/01 09:14:46;;;;;;;;;;;;;;;;;;6149041;23;19904;-92
2023/10/01 09:17:12;;;;;;;;;;;;;;;;;;6151019;23;19909;-92
2023/10/01 09:19:42;;;;;;;;;;;;;;;;;;6150649;23;19913;-92
2023/10/01 09:22:08;;;;;;;;;;;;;;;;;;6151841;23;19912;-92
2023/10/01 09:24:42;;;;;;;;;;;;;;;;;;6149257;23;19911;-92
2023/10/01 09:27:21;;;;;;;;;;;;;;;;;;6149162;23;20683;-91
2023/10/01 09:29:48;;;;;;;;;;;;;;;;;;6149886;23;20318;-92
2023/10/01 09:32:14;;;;;;;;;;;;;;;;;;6147885;23;19913;-93
2023/10/01 09:34:46;;;;;;;;;;;;;;;;;;6148854;23;19958;-93
2023/10/01 09:37:12;;;;;;;;;;;;;;;;;;6149471;23;19909;-93
2023/10/01 09:39:39;;;;;;;;;;;;;;;;;;6152498;23;19909;-93
2023/10/01 09:42:22;;;;;;;;;;;;;;;;;;6150829;23;20312;-93
2023/10/01 09:44:48;;;;;;;;;;;;;;;;;;6150650;23;19911;-93
2023/10/01 09:47:14;;;;;;;;;;;;;;;;;;6151276;23;19952;-93
2023/10/01 09:49:41;;;;;;;;;;;;;;;;;;6151267;23;19971;-93
2023/10/01 09:52:06;;;;;;;;;;;;;;;;;;6152263;23;19916;-93
2023/10/01 09:54:41;;;;;;;;;;;;;;;;;;6150638;23;19933;-93
2023/10/01 09:57:08;;;;;;;;;;;;;;;;;;6148588;23;20335;-93
2023/10/01 09:59:39;;;;;;;;;;;;;;;;;;6151930;23;20346;-94
2023/10/01 10:02:06;;;;;;;;;;;;;;;;;;6151963;23;19932;-93
2023/10/01 10:04:34;;;;;;;;;;;;;;;;;;6152016;23;19928;-93
2023/10/01 10:07:00;;;;;;;;;;;;;;;;;;6151014;23;20350;-95
2023/10/01 10:09:26;;;;;;;;;;;;;;;;;;6153912;23;19931;-94
2023/10/01 10:11:52;;;;;;;;;;;;;;;;;;6156876;23;20340;-96
2023/10/01 10:14:25;;;;;;;;;;;;;;;;;;6154370;23;19919;-95
2023/10/01 10:16:56;;;;;;;;;;;;;;;;;;6151636;23;20318;-94
2023/10/01 10:19:22;;;;;;;;;;;;;;;;;;6151960;23;19940;-96
2023/10/01 10:21:49;;;;;;;;;;;;;;;;;;6150684;23;19912;-95
2023/10/01 10:24:15;;;;;;;;;;;;;;;;;;6151317;23;20303;-95
2023/10/01 10:26:43;;;;;;;;;;;;;;;;;;6150705;23;20383;-95
2023/10/01 10:29:12;;;;;;;;;;;;;;;;;;6152871;23;20339;-94
2023/10/01 10:31:38;;;;;;;;;;;;;;;;;;6153643;23;19916;-96
2023/10/01 10:34:21;;;;;;;;;;;;;;;;;;6158177;23;19904;-95
2023/10/01 10:36:50;;;;;;;;;;;;;;;;;;6154749;23;19908;-95
2023/10/01 10:39:28;;;;;;;;;;;;;;;;;;6153527;23;19912;-96
2023/10/01 10:42:02;;;;;;;;;;;;;;;;;;6157867;23;19919;-96
2023/10/01 10:44:28;;;;;;;;;;;;;;;;;;6163641;23;19944;-96
2023/10/01 10:46:59;;;;;;;;;;;;;;;;;;6155719;23;19909;-96
2023/10/01 10:49:25;;;;;;;;;;;;;;;;;;6155524;23;19909;-96
2023/10/01 10:51:58;;;;;;;;;;;;;;;;;;6164601;23;19939;-95
2023/10/01 10:57:26;;;;;;;;;;;;;;;;;;6161486;23;19951;-89
2023/10/01 10:59:52;;;;;;;;;;;;;;;;;;6132426;23;19909;-90
2023/10/01 11:02:18;;;;;;;;;;;;;;;;;;6132831;23;19920;-92
2023/10/01 11:04:53;;;;;;;;;;;;;;;;;;6133295;23;19928;-92
2023/10/01 11:07:35;;;;;;;;;;;;;;;;;;6157051;23;19908;-93
2023/10/01 11:10:04;;;;;;;;;;;;;;;;;;6133213;23;19955;-93
2023/10/01 11:12:34;;;;;;;;;;;;;;;;;;6132948;23;19993;-94
2023/10/01 11:17:47;;;;;;;;;;;;;;;;;;6155358;23;19996;-92
2023/10/01 11:20:22;;;;;;;;;;;;;;;;;;6131378;23;19909;-92
2023/10/01 11:22:54;;;;;;;;;;;;;;;;;;6131655;23;19932;-92
2023/10/01 11:25:20;;;;;;;;;;;;;;;;;;6132083;23;19904;-92
2023/10/01 11:27:48;;;;;;;;;;;;;;;;;;6134219;23;19928;-93
2023/10/01 11:30:20;;;;;;;;;;;;;;;;;;6137361;23;19951;-94
2023/10/01 11:33:12;;;;;;;;;;;;;;;;;;6134237;23;19909;-93
2023/10/01 11:35:40;;;;;;;;;;;;;;;;;;6133173;23;19919;-93
2023/10/01 11:38:07;;;;;;;;;;;;;;;;;;6134907;23;19932;-93
2023/10/01 11:43:27;;;;;;;;;;;;;;;;;;6161177;23;19923;-93
2023/10/01 11:46:01;;;;;;;;;;;;;;;;;;6137127;23;20531;-93
2023/10/01 11:48:27;;;;;;;;;;;;;;;;;;6161914;23;20642;-93
2023/10/01 11:50:53;;;;;;;;;;;;;;;;;;6135530;23;20274;-92
2023/10/01 11:53:28;;;;;;;;;;;;;;;;;;6136236;23;19908;-93
2023/10/01 11:56:01;;;;;;;;;;;;;;;;;;6130236;23;19924;-94
2023/10/01 11:58:28;;;;;;;;;;;;;;;;;;6103456;23;19992;-94
2023/10/01 12:00:59;;;;;;;;;;;;;;;;;;6102525;23;20290;-91
2023/10/01 12:03:25;;;;;;;;;;;;;;;;;;6105197;23;19916;-91
2023/10/01 12:05:56;;;;;;;;;;;;;;;;;;6105742;23;19952;-93
2023/10/01 12:08:35;;;;;;;;;;;;;;;;;;6129869;23;20360;-90
2023/10/01 12:11:26;;;;;;;;;;;;;;;;;;6102947;23;19916;-90
2023/10/01 12:14:04;;;;;;;;;;;;;;;;;;6129483;23;20280;-91
2023/10/01 12:16:30;;;;;;;;;;;;;;;;;;6104624;23;20009;-87
2023/10/01 12:19:21;;;;;;;;;;;;;;;;;;6104528;23;19905;-89
2023/10/01 12:21:48;;;;;;;;;;;;;;;;;;6129413;23;19960;-91
2023/10/01 12:24:15;;;;;;;;;;;;;;;;;;6102932;23;19920;-90
2023/10/01 12:26:43;;;;;;;;;;;;;;;;;;6103715;23;19905;-90
2023/10/01 12:29:13;;;;;;;;;;;;;;;;;;6105044;23;19905;-90
2023/10/01 12:31:49;;;;;;;;;;;;;;;;;;6134599;23;19920;-88
2023/10/01 12:34:17;;;;;;;;;;;;;;;;;;6106816;23;19909;-87
2023/10/01 12:36:51;;;;;;;;;;;;;;;;;;6107307;23;20335;-93
2023/10/01 12:39:27;;;;;;;;;;;;;;;;;;6112911;23;19944;-92
2023/10/01 12:42:04;;;;;;;;;;;;;;;;;;6110576;23;19939;-91
2023/10/01 12:44:31;;;;;;;;;;;;;;;;;;6111856;23;20610;-90
2023/10/01 12:47:06;;;;;;;;;;;;;;;;;;6112190;23;19932;-91
2023/10/01 12:49:58;;;;;;;;;;;;;;;;;;6138254;23;19975;-90
2023/10/01 12:52:35;;;;;;;;;;;;;;;;;;6135147;23;19917;-87
2023/10/01 12:55:03;;;;;;;;;;;;;;;;;;6123855;23;20019;-88
2023/10/01 12:57:38;;;;;;;;;;;;;;;;;;6131234;23;20292;-89
2023/10/01 13:03:16;;;;;;;;;;;;;;;;;;6166934;23;20345;-94
2023/10/01 13:05:47;;;;;;;;;;;;;;;;;;6136765;23;20572;-92
2023/10/01 13:08:27;;;;;;;;;;;;;;;;;;6139396;23;19937;-90
2023/10/01 13:11:02;;;;;;;;;;;;;;;;;;6162446;23;19912;-96
2023/10/01 13:13:57;;;;;;;;;;;;;;;;;;;;;
2023/10/01 13:16:38;;;;;;;;;;;;;;;;;;6164854;23;20024;-94
2023/10/01 13:19:17;;;;;;;;;;;;;;;;;;6138305;23;19912;-93
2023/10/01 13:21:49;;;;;;;;;;;;;;;;;;6159002;23;19916;-90
2023/10/01 13:24:17;;;;;;;;;;;;;;;;;;6163926;23;19928;-92
2023/10/01 13:26:43;;;;;;;;;;;;;;;;;;6134967;23;19920;-91
2023/10/01 14:10:58;;;;;;;;;;;;;;;;;;6129160;23;19937;-96
2023/10/01 14:13:35;;;;;;;;;;;;;;;;;;6102755;23;19933;-94
2023/10/01 14:16:17;;;;;;;;;;;;;;;;;;6101149;23;20254;-93
2023/10/01 14:18:53;;;;;;;;;;;;;;;;;;6099393;23;19912;-93
2023/10/01 14:21:21;;;;;;;;;;;;;;;;;;6101751;23;19905;-92
2023/10/01 14:23:47;;;;;;;;;;;;;;;;;;6102826;23;20187;-92
2023/10/01 14:26:15;;;;;;;;;;;;;;;;;;6101297;23;19937;-93
2023/10/01 14:28:48;;;;;;;;;;;;;;;;;;6103191;23;19905;-93
2023/10/01 14:31:38;;;;;;;;;;;;;;;;;;6101074;23;19965;-93
2023/10/01 14:34:03;;;;;;;;;;;;;;;;;;6127573;23;20359;-93
2023/10/01 14:36:29;;;;;;;;;;;;;;;;;;6102889;23;20131;-92
2023/10/01 14:38:58;;;;;;;;;;;;;;;;;;6098750;23;19939;-92
2023/10/01 14:41:28;;;;;;;;;;;;;;;;;;6101060;23;19908;-91
2023/10/01 14:43:54;;;;;;;;;;;;;;;;;;6100422;23;20183;-92
2023/10/01 14:46:20;;;;;;;;;;;;;;;;;;6095857;23;20185;-91
2023/10/01 14:48:46;;;;;;;;;;;;;;;;;;6096131;23;19905;-93
2023/10/01 14:51:13;;;;;;;;;;;;;;;;;;6096353;23;19920;-91
2023/10/01 14:53:39;;;;;;;;;;;;;;;;;;6096228;23;19936;-93
2023/10/01 14:56:04;;;;;;;;;;;;;;;;;;6096123;23;19959;-91
2023/10/01 14:58:30;;;;;;;;;;;;;;;;;;6095879;23;19909;-92
2023/10/01 15:00:57;;;;;;;;;;;;;;;;;;6097953;23;19909;-91
2023/10/01 15:03:33;;;;;;;;;;;;;;;;;;6096571;23;20039;-91
2023/10/01 15:05:59;;;;;;;;;;;;;;;;;;6097746;23;20403;-92
2023/10/01 15:08:29;;;;;;;;;;;;;;;;;;6097207;23;19925;-92
2023/10/01 15:10:55;;;;;;;;;;;;;;;;;;6098491;23;19909;-92
2023/10/01 15:13:33;;;;;;;;;;;;;;;;;;6095754;23;19909;-91
2023/10/01 15:16:02;;;;;;;;;;;;;;;;;;6097567;23;19911;-92
2023/10/01 15:18:28;;;;;;;;;;;;;;;;;;6098275;23;19912;-91
2023/10/01 15:20:54;;;;;;;;;;;;;;;;;;6097301;23;19908;-91
2023/10/01 15:23:20;;;;;;;;;;;;;;;;;;6095305;23;20118;-91
2023/10/01 15:25:46;;;;;;;;;;;;;;;;;;6096203;23;20180;-91
2023/10/01 15:28:15;;;;;;;;;;;;;;;;;;6098562;23;19924;-88
2023/10/01 15:30:44;;;;;;;;;;;;;;;;;;6100427;23;19913;-90
2023/10/01 15:33:15;;;;;;;;;;;;;;;;;;6097823;23;19909;-90
2023/10/01 15:35:43;;;;;;;;;;;;;;;;;;6101111;23;19905;-90
2023/10/01 15:38:09;;;;;;;;;;;;;;;;;;6100172;23;19908;-88
2023/10/01 15:40:35;;;;;;;;;;;;;;;;;;6096822;23;20395;-89
2023/10/01 15:43:01;;;;;;;;;;;;;;;;;;6097349;23;19911;-87
2023/10/01 15:45:30;;;;;;;;;;;;;;;;;;6097715;23;20494;-88
2023/10/01 15:47:58;;;;;;;;;;;;;;;;;;6098944;23;19913;-88
2023/10/01 15:50:38;;;;;;;;;;;;;;;;;;6104319;23;19912;-90
2023/10/01 15:55:58;;;;;;;;;;;;;;;;;;6087798;23;19917;-91
2023/10/01 15:58:24;;;;;;;;;;;;;;;;;;6074102;23;19921;-90
2023/10/01 16:00:52;;;;;;;;;;;;;;;;;;6073146;23;19916;-90
2023/10/01 16:03:25;;;;;;;;;;;;;;;;;;6068238;23;20259;-89
2023/10/01 16:05:56;;;;;;;;;;;;;;;;;;6072478;23;20343;-90
2023/10/01 16:08:22;;;;;;;;;;;;;;;;;;6072182;23;19949;-88
2023/10/01 16:10:48;;;;;;;;;;;;;;;;;;6098470;23;20387;-90
2023/10/01 16:13:14;;;;;;;;;;;;;;;;;;6066275;23;19957;-90
2023/10/01 16:15:40;;;;;;;;;;;;;;;;;;6068941;23;19905;-91
2023/10/01 16:18:09;;;;;;;;;;;;;;;;;;6068933;23;19928;-89
2023/10/01 16:20:36;;;;;;;;;;;;;;;;;;6068014;23;20256;-89
2023/10/01 16:23:13;;;;;;;;;;;;;;;;;;6066424;23;20337;-89
2023/10/01 16:25:39;;;;;;;;;;;;;;;;;;6068365;23;19909;-88
2023/10/01 16:28:05;;;;;;;;;;;;;;;;;;6067121;23;20033;-89
2023/10/01 16:30:31;;;;;;;;;;;;;;;;;;6071775;23;19943;-91
2023/10/01 16:32:57;;;;;;;;;;;;;;;;;;6075192;23;19909;-89
2023/10/01 16:35:31;;;;;;;;;;;;;;;;;;6069933;23;19913;-90
2023/10/01 16:37:57;;;;;;;;;;;;;;;;;;6067290;23;19980;-89
2023/10/01 16:40:23;;;;;;;;;;;;;;;;;;6092210;23;20003;-90
2023/10/01 16:42:52;;;;;;;;;;;;;;;;;;6066691;23;19909;-90
2023/10/01 16:45:17;;;;;;;;;;;;;;;;;;6068016;23;20610;-89
2023/10/01 16:47:48;;;;;;;;;;;;;;;;;;6072340;23;19945;-89
2023/10/01 16:50:14;;;;;;;;;;;;;;;;;;6069141;23;19933;-90
2023/10/01 16:52:40;;;;;;;;;;;;;;;;;;6067469;23;20252;-89
2023/10/01 16:55:06;;;;;;;;;;;;;;;;;;6070025;23;19921;-89
2023/10/01 16:57:32;;;;;;;;;;;;;;;;;;6069231;23;19905;-89
2023/10/01 16:59:58;;;;;;;;;;;;;;;;;;6067819;23;19905;-90
2023/10/01 17:02:26;;;;;;;;;;;;;;;;;;6066124;23;19936;-89
2023/10/01 17:04:52;;;;;;;;;;;;;;;;;;6069381;23;20332;-90
2023/10/01 17:07:18;;;;;;;;;;;;;;;;;;6075001;23;19944;-89
2023/10/01 17:09:50;;;;;;;;;;;;;;;;;;6073299;23;19910;-90
2023/10/01 17:12:18;;;;;;;;;;;;;;;;;;6072001;23;19921;-90
2023/10/01 17:14:44;;;;;;;;;;;;;;;;;;6071583;23;19984;-89
2023/10/01 17:17:12;;;;;;;;;;;;;;;;;;6072596;23;19905;-92
2023/10/01 17:19:39;;;;;;;;;;;;;;;;;;6074527;23;19936;-92
2023/10/01 17:22:08;;;;;;;;;;;;;;;;;;6074764;23;19909;-93
2023/10/01 17:24:36;;;;;;;;;;;;;;;;;;6074197;23;20470;-92
2023/10/01 17:27:05;;;;;;;;;;;;;;;;;;6071561;23;20336;-93
2023/10/01 17:29:31;;;;;;;;;;;;;;;;;;6074793;23;20633;-93
2023/10/01 17:31:58;;;;;;;;;;;;;;;;;;6075354;23;19917;-93
2023/10/01 17:34:25;;;;;;;;;;;;;;;;;;6075415;23;20622;-93
2023/10/01 17:37:09;;;;;;;;;;;;;;;;;;6075440;23;19906;-93
2023/10/01 17:39:36;;;;;;;;;;;;;;;;;;6077516;23;19963;-93
2023/10/01 17:42:03;;;;;;;;;;;;;;;;;;6075786;23;19968;-92
2023/10/01 17:44:29;;;;;;;;;;;;;;;;;;6070208;23;20611;-93
2023/10/01 17:47:08;;;;;;;;;;;;;;;;;;6071770;23;19905;-94
2023/10/01 17:49:34;;;;;;;;;;;;;;;;;;6089324;23;19941;-89
2023/10/01 17:52:18;;;;;;;;;;;;;;;;;;6065266;23;19913;-90
2023/10/01 17:54:44;;;;;;;;;;;;;;;;;;6067845;23;19996;-91
2023/10/01 17:57:10;;;;;;;;;;;;;;;;;;6065126;23;20268;-89
2023/10/01 17:59:36;;;;;;;;;;;;;;;;;;6065893;23;20343;-90
2023/10/01 18:02:05;;;;;;;;;;;;;;;;;;6064640;23;19909;-90
2023/10/01 18:04:36;;;;;;;;;;;;;;;;;;6089816;23;20323;-91
2023/10/01 18:07:02;;;;;;;;;;;;;;;;;;6063879;23;19909;-89
2023/10/01 18:09:28;;;;;;;;;;;;;;;;;;6091162;23;19932;-89
2023/10/01 18:12:01;;;;;;;;;;;;;;;;;;6065785;23;19944;-89
2023/10/01 18:14:27;;;;;;;;;;;;;;;;;;6064369;23;20019;-93
2023/10/01 18:16:54;;;;;;;;;;;;;;;;;;6065099;23;19909;-87
2023/10/01 18:19:20;;;;;;;;;;;;;;;;;;6063882;23;19910;-87
2023/10/01 18:21:53;;;;;;;;;;;;;;;;;;6064428;23;19961;-86